Time;durP1;ratioP1;P1;durP2;ratioP2;P2;SDS_P1;SDS_P2;PMS_P1;PMS_P2;Temp;Humidity;BMP_temperature;BMP_pressure;BME280_temperature;BME280_humidity;BME280_pressure;Samples;Min_cycle;Max_cycle;Signal;HPM_P1;HPM_P2
2021/10/19 00:01:51;;;;;;;16.13;8.43;;;16.40;99.90;;;;;;5074331;28;20159;-79
2021/10/19 00:04:20;;;;;;;10.70;7.85;;;16.30;99.90;;;;;;5073926;28;20651;-79
2021/10/19 00:06:45;;;;;;;9.75;8.75;;;16.40;99.90;;;;;;5074017;28;20202;-79
2021/10/19 00:09:11;;;;;;;13.55;8.50;;;16.30;99.90;;;;;;5073512;28;20673;-79
2021/10/19 00:11:39;;;;;;;9.38;8.05;;;16.30;99.90;;;;;;5074064;28;20619;-81
2021/10/19 00:14:05;;;;;;;8.57;7.78;;;16.30;99.90;;;;;;5073384;28;20186;-78
2021/10/19 00:16:30;;;;;;;10.18;7.88;;;16.30;99.90;;;;;;5073939;28;20585;-79
2021/10/19 00:18:56;;;;;;;9.38;6.80;;;16.20;99.90;;;;;;5073484;28;20201;-79
2021/10/19 00:21:22;;;;;;;8.65;6.95;;;16.40;99.90;;;;;;5073650;28;20162;-79
2021/10/19 00:23:47;;;;;;;6.85;6.30;;;16.50;99.90;;;;;;5073778;28;20171;-79
2021/10/19 00:26:13;;;;;;;7.22;6.63;;;16.30;99.90;;;;;;5073558;28;20570;-79
2021/10/19 00:28:39;;;;;;;7.55;6.80;;;16.30;99.90;;;;;;5073512;28;20182;-79
2021/10/19 00:31:04;;;;;;;6.85;6.25;;;16.20;99.90;;;;;;5073521;28;20307;-78
2021/10/19 00:33:30;;;;;;;7.68;6.90;;;16.10;99.90;;;;;;5073491;28;20251;-79
2021/10/19 00:35:56;;;;;;;8.00;6.25;;;16.00;99.90;;;;;;5073249;28;20167;-79
2021/10/19 00:38:21;;;;;;;7.78;7.05;;;15.90;99.90;;;;;;5073206;28;20201;-79
2021/10/19 00:40:47;;;;;;;6.05;5.40;;;15.80;99.90;;;;;;5073250;28;20165;-80
2021/10/19 00:43:13;;;;;;;8.40;6.22;;;15.90;99.90;;;;;;5072192;28;20255;-79
2021/10/19 00:45:38;;;;;;;6.32;5.78;;;15.90;99.90;;;;;;5072931;28;20158;-78
2021/10/19 00:48:05;;;;;;;6.63;5.97;;;16.10;99.90;;;;;;5072745;28;20198;-79
2021/10/19 00:50:32;;;;;;;5.38;4.95;;;16.20;99.90;;;;;;5072915;28;20162;-78
2021/10/19 00:52:58;;;;;;;7.72;5.18;;;16.20;99.90;;;;;;5072707;28;20288;-78
2021/10/19 00:55:24;;;;;;;8.00;5.30;;;16.30;99.90;;;;;;5072911;28;20158;-79
2021/10/19 00:58:07;;;;;;;5.85;5.35;;;16.10;99.90;;;;;;5072355;28;20658;-79
2021/10/19 01:00:33;;;;;;;6.95;4.80;;;16.20;99.90;;;;;;5072745;28;20277;-80
2021/10/19 01:03:00;;;;;;;6.30;4.55;;;16.20;99.90;;;;;;5071167;28;20240;-78
2021/10/19 01:05:26;;;;;;;8.50;5.30;;;16.10;99.90;;;;;;5071516;28;20525;-79
2021/10/19 01:08:11;;;;;;;6.47;5.47;;;16.20;99.90;;;;;;5072033;28;20587;-79
2021/10/19 01:10:37;;;;;;;5.50;5.00;;;16.30;99.90;;;;;;5072644;28;20175;-79
2021/10/19 01:13:03;;;;;;;5.28;4.78;;;16.20;99.90;;;;;;5072529;28;20210;-79
2021/10/19 01:15:32;;;;;;;4.78;4.38;;;16.20;99.90;;;;;;5071602;28;20247;-79
2021/10/19 01:17:59;;;;;;;4.88;4.47;;;16.20;99.90;;;;;;5072026;28;20250;-78
2021/10/19 01:20:27;;;;;;;4.30;3.97;;;16.10;99.90;;;;;;5072238;28;20167;-78
2021/10/19 01:22:56;;;;;;;3.97;3.67;;;16.20;99.90;;;;;;5072780;28;20174;-78
2021/10/19 01:25:24;;;;;;;4.53;4.18;;;16.20;99.90;;;;;;5072458;28;20171;-79
2021/10/19 01:27:53;;;;;;;4.80;4.40;;;16.10;99.90;;;;;;5072686;28;20558;-78
2021/10/19 01:30:20;;;;;;;4.22;3.83;;;16.10;99.90;;;;;;5072519;28;20163;-79
2021/10/19 01:32:46;;;;;;;4.03;3.67;;;16.10;99.90;;;;;;5072545;28;20297;-78
2021/10/19 01:35:12;;;;;;;4.00;3.70;;;16.10;99.90;;;;;;5072457;28;20249;-79
2021/10/19 01:37:37;;;;;;;4.25;3.90;;;16.10;99.90;;;;;;5072197;28;20673;-79
2021/10/19 01:40:08;;;;;;;5.10;3.92;;;16.20;99.90;;;;;;5071885;28;20522;-79
2021/10/19 01:42:34;;;;;;;4.55;4.15;;;16.20;99.90;;;;;;5072661;28;20158;-78
2021/10/19 01:45:00;;;;;;;4.25;3.85;;;16.20;99.90;;;;;;5072503;28;20169;-79
2021/10/19 01:47:27;;;;;;;3.70;3.20;;;16.20;99.90;;;;;;5071998;28;20186;-79
2021/10/19 01:49:52;;;;;;;4.10;3.80;;;16.10;99.90;;;;;;5072350;28;20166;-77
2021/10/19 01:52:18;;;;;;;4.00;3.70;;;16.00;99.90;;;;;;5072170;28;20547;-78
2021/10/19 01:54:43;;;;;;;4.03;3.60;;;16.10;99.90;;;;;;5071944;28;20163;-79
2021/10/19 01:57:09;;;;;;;3.03;2.78;;;16.10;99.90;;;;;;5072114;28;20167;-78
2021/10/19 01:59:35;;;;;;;5.47;3.40;;;16.30;99.90;;;;;;5071644;28;20197;-78
2021/10/19 02:02:00;;;;;;;3.78;3.45;;;16.30;99.90;;;;;;5071953;28;20161;-78
2021/10/19 02:04:27;;;;;;;3.17;2.97;;;16.40;99.90;;;;;;5072241;28;20174;-79
2021/10/19 02:06:52;;;;;;;3.50;3.20;;;16.40;99.90;;;;;;5072209;28;20250;-80
2021/10/19 02:09:18;;;;;;;3.08;2.85;;;16.20;99.90;;;;;;5071836;28;20324;-79
2021/10/19 02:11:43;;;;;;;3.50;2.50;;;16.30;99.90;;;;;;5072066;28;20163;-79
2021/10/19 02:14:09;;;;;;;10.15;2.90;;;16.20;99.90;;;;;;5071737;28;20653;-79
2021/10/19 02:16:35;;;;;;;3.05;2.75;;;16.20;99.90;;;;;;5070822;28;20186;-79
2021/10/19 02:19:00;;;;;;;3.55;3.13;;;16.20;99.90;;;;;;5071780;28;20190;-79
2021/10/19 02:21:26;;;;;;;3.88;3.58;;;16.10;99.90;;;;;;5072171;28;20512;-79
2021/10/19 02:23:51;;;;;;;4.15;3.05;;;16.10;99.90;;;;;;5071705;28;20175;-78
2021/10/19 02:26:20;;;;;;;4.32;2.33;;;16.30;99.90;;;;;;5072085;28;20171;-78
2021/10/19 02:28:46;;;;;;;3.30;3.00;;;16.10;99.90;;;;;;5071615;28;20210;-79
2021/10/19 02:31:12;;;;;;;3.55;3.25;;;16.10;99.90;;;;;;5070784;28;20635;-78
2021/10/19 02:33:38;;;;;;;3.47;3.17;;;16.20;99.90;;;;;;5071566;28;20202;-80
2021/10/19 02:36:04;;;;;;;3.63;3.30;;;16.20;99.90;;;;;;5071883;28;20518;-79
2021/10/19 02:38:29;;;;;;;3.72;3.42;;;16.30;99.90;;;;;;5071941;28;20218;-79
2021/10/19 02:40:55;;;;;;;7.25;3.35;;;16.30;99.90;;;;;;5072009;28;20579;-78
2021/10/19 02:43:21;;;;;;;3.05;2.85;;;16.30;99.90;;;;;;5072250;28;20231;-79
2021/10/19 02:45:47;;;;;;;4.43;2.85;;;16.40;99.90;;;;;;5071618;28;20159;-78
2021/10/19 02:48:12;;;;;;;3.90;3.60;;;16.50;99.90;;;;;;5071565;28;20277;-80
2021/10/19 02:50:38;;;;;;;3.33;3.10;;;16.70;99.90;;;;;;5071974;28;20246;-79
2021/10/19 02:53:04;;;;;;;3.92;3.55;;;16.80;99.90;;;;;;5070317;28;20742;-79
2021/10/19 02:55:29;;;;;;;6.30;3.80;;;16.60;99.90;;;;;;5070484;28;20175;-80
2021/10/19 02:57:55;;;;;;;3.95;3.65;;;16.60;99.90;;;;;;5071822;28;20187;-78
2021/10/19 03:00:21;;;;;;;5.10;4.70;;;16.70;99.90;;;;;;5071454;28;20189;-79
2021/10/19 03:02:46;;;;;;;8.15;4.57;;;16.60;99.90;;;;;;5071387;28;20171;-77
2021/10/19 03:05:12;;;;;;;5.13;4.63;;;16.40;99.90;;;;;;5072221;28;20215;-77
2021/10/19 03:07:38;;;;;;;6.43;4.75;;;16.40;99.90;;;;;;5074941;28;20183;-76
2021/10/19 03:10:05;;;;;;;5.30;4.90;;;16.40;99.90;;;;;;5073528;28;20261;-80
2021/10/19 03:12:30;;;;;;;5.57;5.18;;;16.40;99.90;;;;;;5074627;28;20233;-79
2021/10/19 03:14:56;;;;;;;5.85;5.35;;;16.40;99.90;;;;;;5074624;28;20264;-79
2021/10/19 03:17:22;;;;;;;5.70;5.20;;;16.30;99.90;;;;;;5074491;28;20186;-78
2021/10/19 03:19:47;;;;;;;5.68;5.03;;;16.30;99.90;;;;;;5075051;28;20530;-78
2021/10/19 03:22:13;;;;;;;7.40;6.38;;;16.50;99.90;;;;;;5074758;28;20166;-78
2021/10/19 03:24:38;;;;;;;8.13;5.95;;;16.60;99.90;;;;;;5074567;28;20177;-79
2021/10/19 03:27:04;;;;;;;6.10;5.68;;;16.70;99.90;;;;;;5074519;28;20170;-79
2021/10/19 03:29:30;;;;;;;6.22;5.82;;;16.70;99.90;;;;;;5074796;28;20527;-79
2021/10/19 03:31:56;;;;;;;10.15;5.85;;;16.70;99.90;;;;;;5074497;28;20620;-78
2021/10/19 03:34:21;;;;;;;10.02;5.50;;;16.70;99.90;;;;;;5074648;28;20635;-79
2021/10/19 03:36:47;;;;;;;6.25;5.40;;;16.90;99.90;;;;;;5074756;28;20594;-79
2021/10/19 03:39:13;;;;;;;6.03;5.20;;;16.80;99.90;;;;;;5074580;28;20209;-78
2021/10/19 03:41:39;;;;;;;8.18;5.93;;;16.60;99.90;;;;;;5074719;28;20607;-78
2021/10/19 03:44:05;;;;;;;6.18;5.72;;;16.40;99.90;;;;;;5074489;28;20171;-78
2021/10/19 03:46:31;;;;;;;5.63;5.22;;;16.40;99.90;;;;;;5074282;28;20546;-78
2021/10/19 03:48:56;;;;;;;5.70;5.25;;;16.40;99.90;;;;;;5074374;28;20182;-78
2021/10/19 03:51:22;;;;;;;6.47;5.97;;;16.50;99.90;;;;;;5074772;28;20646;-78
2021/10/19 03:53:48;;;;;;;6.10;5.70;;;16.60;99.90;;;;;;5074516;28;20202;-78
2021/10/19 03:56:14;;;;;;;7.70;5.95;;;16.80;99.90;;;;;;5074273;28;20171;-78
2021/10/19 03:58:39;;;;;;;5.60;5.03;;;16.80;99.90;;;;;;5073625;28;20186;-78
2021/10/19 04:01:05;;;;;;;5.57;5.18;;;16.90;99.90;;;;;;5073802;28;20170;-78
2021/10/19 04:03:31;;;;;;;5.88;5.38;;;16.70;99.90;;;;;;5073674;28;20162;-81
2021/10/19 04:05:56;;;;;;;7.05;6.45;;;16.80;99.90;;;;;;5073936;28;20234;-78
2021/10/19 04:08:22;;;;;;;5.47;5.07;;;16.80;99.90;;;;;;5074033;28;20236;-78
2021/10/19 04:10:48;;;;;;;6.00;5.50;;;16.80;99.90;;;;;;5073689;28;20173;-78
2021/10/19 04:13:13;;;;;;;6.53;6.03;;;16.80;99.90;;;;;;5073761;28;20206;-79
2021/10/19 04:15:39;;;;;;;6.05;5.55;;;16.90;99.90;;;;;;5073768;28;20564;-79
2021/10/19 04:18:05;;;;;;;6.65;6.15;;;16.80;99.90;;;;;;5072501;28;20647;-78
2021/10/19 04:20:30;;;;;;;6.35;5.72;;;17.00;99.90;;;;;;5074085;28;20163;-79
2021/10/19 04:22:56;;;;;;;6.07;5.68;;;17.00;99.90;;;;;;5073535;28;20177;-80
2021/10/19 04:25:22;;;;;;;6.75;6.22;;;17.00;99.90;;;;;;5073522;28;20166;-79
2021/10/19 04:27:47;;;;;;;7.25;6.65;;;17.10;99.90;;;;;;5073589;28;20214;-79
2021/10/19 04:30:13;;;;;;;6.68;6.18;;;17.10;99.90;;;;;;5073299;28;20177;-79
2021/10/19 04:32:39;;;;;;;9.73;6.03;;;17.10;99.90;;;;;;5073087;28;20214;-79
2021/10/19 04:35:05;;;;;;;6.82;6.25;;;17.00;99.90;;;;;;5073083;28;20163;-80
2021/10/19 04:37:31;;;;;;;6.85;6.35;;;17.00;99.90;;;;;;5073127;28;20344;-79
2021/10/19 04:39:57;;;;;;;6.45;5.50;;;17.10;99.90;;;;;;5073157;28;20198;-79
2021/10/19 04:42:23;;;;;;;6.70;6.20;;;17.10;99.90;;;;;;5073219;28;20201;-80
2021/10/19 04:44:49;;;;;;;6.45;5.97;;;16.90;99.90;;;;;;5073344;28;20363;-80
2021/10/19 04:47:15;;;;;;;6.28;5.80;;;17.00;99.90;;;;;;5072999;28;20186;-79
2021/10/19 04:49:41;;;;;;;5.82;5.43;;;16.90;99.90;;;;;;5072911;28;20207;-79
2021/10/19 04:52:07;;;;;;;6.25;5.65;;;16.90;99.90;;;;;;5072872;28;20245;-80
2021/10/19 04:54:32;;;;;;;6.20;5.70;;;16.90;99.90;;;;;;5073011;28;20694;-80
2021/10/19 04:56:58;;;;;;;6.25;5.70;;;16.90;99.90;;;;;;5072761;28;20167;-79
2021/10/19 04:59:24;;;;;;;5.72;5.32;;;16.80;99.90;;;;;;5072725;28;20191;-80
2021/10/19 05:01:49;;;;;;;7.25;6.55;;;16.80;99.90;;;;;;5072987;28;20159;-81
2021/10/19 05:04:15;;;;;;;6.68;6.07;;;16.90;99.90;;;;;;5072258;28;20184;-78
2021/10/19 05:06:45;;;;;;;7.47;6.78;;;16.90;99.90;;;;;;5073374;28;20157;-81
2021/10/19 05:09:10;;;;;;;7.35;6.85;;;16.90;99.90;;;;;;5072661;28;20518;-78
2021/10/19 05:11:36;;;;;;;7.65;7.05;;;16.90;99.90;;;;;;5073091;28;20249;-79
2021/10/19 05:14:03;;;;;;;8.15;7.65;;;16.90;99.90;;;;;;5077583;28;21019;-79
2021/10/19 05:16:28;;;;;;;7.65;7.05;;;16.90;99.90;;;;;;5094007;28;20182;-79
2021/10/19 05:18:54;;;;;;;9.32;7.35;;;16.90;99.90;;;;;;5095318;28;20546;-78
2021/10/19 05:21:19;;;;;;;7.78;7.20;;;16.90;99.90;;;;;;5094553;28;20218;-78
2021/10/19 05:23:45;;;;;;;7.18;6.55;;;16.80;99.90;;;;;;5095201;28;20165;-78
2021/10/19 05:26:11;;;;;;;7.85;7.07;;;16.80;99.90;;;;;;5082854;28;20186;-79
2021/10/19 05:28:36;;;;;;;6.93;6.43;;;16.80;99.90;;;;;;5077507;28;20201;-81
2021/10/19 05:31:03;;;;;;;7.15;6.50;;;16.90;99.90;;;;;;5077735;28;20166;-82
2021/10/19 05:33:29;;;;;;;6.82;6.43;;;16.70;99.90;;;;;;5075276;28;20285;-79
2021/10/19 05:35:55;;;;;;;7.22;6.53;;;16.70;99.90;;;;;;5072549;28;20194;-80
2021/10/19 05:38:20;;;;;;;7.05;6.35;;;16.90;99.90;;;;;;5072636;28;20671;-79
2021/10/19 05:40:46;;;;;;;8.13;7.43;;;16.90;99.90;;;;;;5072815;28;20163;-79
2021/10/19 05:43:12;;;;;;;7.47;6.95;;;17.10;99.90;;;;;;5072244;28;20743;-80
2021/10/19 05:45:37;;;;;;;6.78;6.38;;;17.00;99.90;;;;;;5072500;28;20163;-80
2021/10/19 05:48:03;;;;;;;8.05;7.25;;;17.10;99.90;;;;;;5071989;28;20666;-80
2021/10/19 05:50:31;;;;;;;8.60;6.55;;;17.20;99.90;;;;;;5071991;28;20173;-80
2021/10/19 05:52:57;;;;;;;8.02;6.75;;;17.30;99.90;;;;;;5071755;28;20240;-79
2021/10/19 05:55:22;;;;;;;8.65;7.15;;;17.20;99.90;;;;;;5071950;28;20175;-80
2021/10/19 05:57:48;;;;;;;7.78;7.00;;;17.10;99.90;;;;;;5071626;28;20186;-77
2021/10/19 06:00:14;;;;;;;7.68;7.03;;;17.10;99.90;;;;;;5071981;28;20186;-79
2021/10/19 06:02:40;;;;;;;8.60;7.75;;;17.10;99.90;;;;;;5071798;28;20170;-79
2021/10/19 06:05:06;;;;;;;10.38;8.20;;;17.10;99.90;;;;;;5071391;28;20166;-79
2021/10/19 06:07:31;;;;;;;12.52;8.98;;;17.10;99.90;;;;;;5070332;28;20261;-79
2021/10/19 06:09:57;;;;;;;9.55;8.75;;;17.10;99.90;;;;;;5072081;28;20184;-79
2021/10/19 06:12:23;;;;;;;8.98;8.18;;;17.20;99.90;;;;;;5070131;28;20214;-79
2021/10/19 06:14:48;;;;;;;9.00;8.20;;;17.10;99.90;;;;;;5072688;28;20545;-79
2021/10/19 06:17:14;;;;;;;9.00;7.97;;;17.20;99.90;;;;;;5071741;28;20269;-79
2021/10/19 06:19:40;;;;;;;9.13;8.40;;;17.00;99.90;;;;;;5071593;28;20199;-78
2021/10/19 06:22:05;;;;;;;8.85;7.93;;;17.00;99.90;;;;;;5071803;28;20528;-79
2021/10/19 06:24:31;;;;;;;11.57;8.15;;;17.00;99.90;;;;;;5071831;28;20202;-79
2021/10/19 06:26:57;;;;;;;8.43;7.63;;;17.10;99.90;;;;;;5071834;28;20191;-79
2021/10/19 06:29:22;;;;;;;7.43;6.32;;;17.10;99.90;;;;;;5071989;28;20174;-79
2021/10/19 06:31:48;;;;;;;9.07;6.88;;;17.10;99.90;;;;;;5071936;28;20182;-79
2021/10/19 06:34:15;;;;;;;7.47;6.85;;;17.00;99.90;;;;;;5071592;28;20206;-79
2021/10/19 06:36:41;;;;;;;7.82;7.03;;;17.00;99.90;;;;;;5070496;28;20199;-79
2021/10/19 06:39:06;;;;;;;7.18;6.57;;;16.90;99.90;;;;;;5071867;28;20240;-79
2021/10/19 06:41:33;;;;;;;8.55;6.63;;;16.90;99.90;;;;;;5074620;28;20174;-80
2021/10/19 06:43:59;;;;;;;7.10;6.32;;;16.90;99.90;;;;;;5075295;28;20170;-79
2021/10/19 06:46:25;;;;;;;8.07;6.57;;;17.00;99.90;;;;;;5075186;28;20192;-79
2021/10/19 06:48:50;;;;;;;6.45;5.85;;;17.00;99.90;;;;;;5075387;28;20328;-80
2021/10/19 06:51:16;;;;;;;6.20;5.68;;;17.10;99.90;;;;;;5074972;28;20686;-78
2021/10/19 06:53:42;;;;;;;7.03;6.40;;;17.10;99.90;;;;;;5075097;28;20206;-79
2021/10/19 06:56:07;;;;;;;6.53;5.93;;;16.90;99.90;;;;;;5075191;28;20159;-80
2021/10/19 06:58:33;;;;;;;7.80;5.75;;;17.00;99.90;;;;;;5075021;28;20566;-78
2021/10/19 07:01:02;;;;;;;10.20;6.25;;;17.00;99.90;;;;;;5075053;28;20258;-78
2021/10/19 07:03:28;;;;;;;6.72;6.13;;;17.10;99.90;;;;;;5074689;28;20227;-78
2021/10/19 07:05:54;;;;;;;6.80;6.20;;;17.20;99.90;;;;;;5073435;28;20182;-80
2021/10/19 07:08:21;;;;;;;7.03;6.43;;;17.10;99.90;;;;;;5073313;28;20195;-80
2021/10/19 07:10:48;;;;;;;7.20;6.15;;;16.90;99.90;;;;;;5074862;28;20674;-79
2021/10/19 07:13:20;;;;;;;10.25;6.13;;;16.80;99.90;;;;;;5074594;28;20209;-79
2021/10/19 07:15:45;;;;;;;7.68;6.68;;;16.80;99.90;;;;;;5074733;28;20163;-80
2021/10/19 07:18:11;;;;;;;8.50;7.65;;;16.90;99.90;;;;;;5074728;28;20605;-79
2021/10/19 07:20:37;;;;;;;9.52;8.50;;;17.00;99.90;;;;;;5074975;28;20578;-79
2021/10/19 07:23:03;;;;;;;11.27;8.55;;;17.20;99.90;;;;;;5075025;28;20170;-79
2021/10/19 07:25:29;;;;;;;11.38;8.73;;;17.10;99.90;;;;;;5074803;28;20162;-78
2021/10/19 07:28:00;;;;;;;10.55;8.63;;;17.10;99.90;;;;;;5074697;28;20751;-79
2021/10/19 07:30:25;;;;;;;10.85;9.20;;;17.10;99.90;;;;;;5074834;28;20594;-78
2021/10/19 07:32:52;;;;;;;14.70;9.52;;;17.10;99.90;;;;;;5074557;28;20297;-79
2021/10/19 07:35:18;;;;;;;23.80;9.48;;;17.00;99.90;;;;;;5072996;28;20167;-79
2021/10/19 07:37:44;;;;;;;12.40;9.85;;;17.10;99.90;;;;;;5074065;28;20186;-78
2021/10/19 07:40:11;;;;;;;13.55;9.68;;;17.20;99.90;;;;;;5074370;28;20215;-78
2021/10/19 07:42:37;;;;;;;16.88;9.50;;;17.30;99.90;;;;;;5072967;28;20175;-79
2021/10/19 07:45:05;;;;;;;16.48;10.40;;;17.30;99.90;;;;;;5072634;28;20175;-79
2021/10/19 07:47:31;;;;;;;11.52;10.20;;;17.30;99.90;;;;;;5074238;28;20190;-79
2021/10/19 07:49:57;;;;;;;15.70;9.50;;;17.40;99.90;;;;;;5074385;28;20178;-81
2021/10/19 07:52:22;;;;;;;11.57;10.05;;;17.40;99.90;;;;;;5074070;28;20202;-82
2021/10/19 07:54:48;;;;;;;15.07;10.15;;;17.30;99.90;;;;;;5073261;28;20166;-83
2021/10/19 07:57:14;;;;;;;21.42;11.10;;;17.30;99.90;;;;;;5074469;28;20539;-89
2021/10/19 07:59:40;;;;;;;12.75;10.02;;;17.40;99.90;;;;;;5073963;28;20182;-82
2021/10/19 08:02:06;;;;;;;14.65;10.88;;;17.40;99.90;;;;;;5074974;28;20586;-84
2021/10/19 08:04:32;;;;;;;16.30;10.40;;;17.40;99.90;;;;;;5073086;28;20166;-85
2021/10/19 08:06:58;;;;;;;13.30;10.07;;;17.50;99.90;;;;;;5075119;28;20177;-88
2021/10/19 08:09:24;;;;;;;15.82;11.15;;;17.50;99.90;;;;;;5074924;28;20158;-85
2021/10/19 08:11:50;;;;;;;16.23;11.43;;;17.60;99.90;;;;;;5074530;28;20163;-87
2021/10/19 08:14:16;;;;;;;19.52;10.88;;;17.60;99.90;;;;;;5072280;28;20578;-86
2021/10/19 08:16:42;;;;;;;18.17;10.63;;;17.50;99.90;;;;;;5072859;28;20178;-80
2021/10/19 08:19:07;;;;;;;14.20;10.40;;;17.50;99.90;;;;;;5071668;28;20190;-80
2021/10/19 08:21:33;;;;;;;17.02;11.73;;;17.70;99.90;;;;;;5071059;28;20698;-79
2021/10/19 08:23:59;;;;;;;17.30;11.40;;;17.80;99.90;;;;;;5072442;28;20177;-79
2021/10/19 08:26:30;;;;;;;14.93;10.63;;;17.80;99.90;;;;;;5073485;28;20163;-79
2021/10/19 08:28:57;;;;;;;14.73;10.68;;;17.70;99.90;;;;;;5073493;28;20182;-80
2021/10/19 08:31:22;;;;;;;14.50;10.90;;;17.80;99.90;;;;;;5073717;28;20158;-80
2021/10/19 08:33:50;;;;;;;17.52;10.52;;;17.70;99.90;;;;;;5072900;28;20263;-81
2021/10/19 08:36:17;;;;;;;12.38;10.80;;;17.70;99.90;;;;;;5071816;28;20170;-80
2021/10/19 08:38:43;;;;;;;18.20;11.55;;;17.60;99.90;;;;;;5073450;28;20732;-80
2021/10/19 08:41:11;;;;;;;14.25;10.50;;;17.80;99.90;;;;;;5073369;28;20686;-79
2021/10/19 08:43:38;;;;;;;16.33;11.18;;;17.80;99.90;;;;;;5073018;28;20208;-80
2021/10/19 08:46:07;;;;;;;15.73;10.57;;;17.90;99.90;;;;;;5072903;28;20253;-79
2021/10/19 08:48:32;;;;;;;15.50;11.32;;;18.00;99.90;;;;;;5072703;28;20186;-79
2021/10/19 08:50:58;;;;;;;14.75;10.63;;;17.90;99.90;;;;;;5072813;28;20569;-80
2021/10/19 08:53:25;;;;;;;15.77;9.75;;;17.80;99.90;;;;;;5079615;28;20294;-82
2021/10/19 08:55:51;;;;;;;15.05;10.05;;;17.90;99.90;;;;;;5092261;28;20166;-81
2021/10/19 08:58:17;;;;;;;14.40;10.10;;;17.90;99.90;;;;;;5092899;28;20186;-79
2021/10/19 09:00:43;;;;;;;14.27;10.25;;;17.90;99.90;;;;;;5092291;28;20247;-79
2021/10/19 09:03:09;;;;;;;14.23;10.43;;;18.00;99.90;;;;;;5054457;28;20250;-83
2021/10/19 09:05:35;;;;;;;10.80;8.35;;;18.20;99.90;;;;;;5051098;28;20163;-80
2021/10/19 09:08:03;;;;;;;12.80;9.43;;;18.10;99.90;;;;;;5051204;28;20225;-81
2021/10/19 09:10:40;;;;;;;15.18;8.10;;;18.10;99.90;;;;;;5051226;28;20233;-78
2021/10/19 09:13:09;;;;;;;9.63;8.63;;;18.20;99.90;;;;;;5055490;28;20209;-78
2021/10/19 09:15:36;;;;;;;13.02;8.43;;;18.30;99.90;;;;;;5072143;28;20159;-78
2021/10/19 09:18:09;;;;;;;10.57;9.07;;;18.40;99.90;;;;;;5072655;28;20247;-78
2021/10/19 09:20:37;;;;;;;8.48;7.70;;;18.50;99.90;;;;;;5072769;28;20168;-78
2021/10/19 09:23:05;;;;;;;9.43;7.57;;;18.60;99.90;;;;;;5072366;28;20171;-77
2021/10/19 09:25:39;;;;;;;8.27;7.53;;;18.60;99.90;;;;;;5072624;28;20170;-78
2021/10/19 09:28:08;;;;;;;8.60;7.32;;;18.60;99.90;;;;;;5071507;28;20276;-78
2021/10/19 09:30:49;;;;;;;23.20;7.28;;;18.40;99.90;;;;;;5072407;28;20219;-77
2021/10/19 09:33:20;;;;;;;8.40;6.75;;;18.50;99.90;;;;;;5071825;28;20695;-78
2021/10/19 09:35:51;;;;;;;13.95;7.20;;;18.60;99.90;;;;;;5072475;28;20223;-78
2021/10/19 09:38:17;;;;;;;7.32;6.32;;;18.60;99.90;;;;;;5071799;28;20545;-78
2021/10/19 09:40:56;;;;;;;11.52;6.78;;;18.70;99.90;;;;;;5071531;28;20189;-77
2021/10/19 09:43:24;;;;;;;6.60;6.00;;;18.80;99.90;;;;;;5071637;28;20174;-81
2021/10/19 09:45:55;;;;;;;6.18;5.68;;;19.00;99.90;;;;;;5072155;28;20169;-79
2021/10/19 09:48:23;;;;;;;8.27;5.97;;;19.20;99.90;;;;;;5071968;28;20183;-78
2021/10/19 09:50:49;;;;;;;7.07;6.30;;;19.30;99.90;;;;;;5071016;28;20170;-80
2021/10/19 09:53:19;;;;;;;9.73;6.10;;;19.20;99.90;;;;;;5071577;28;20214;-80
2021/10/19 09:55:50;;;;;;;5.85;5.22;;;19.20;99.90;;;;;;5071906;28;20181;-81
2021/10/19 09:58:17;;;;;;;5.10;4.63;;;19.20;99.90;;;;;;5071160;28;20201;-81
2021/10/19 10:00:43;;;;;;;5.38;4.63;;;19.20;99.90;;;;;;5070376;28;20582;-81
2021/10/19 10:03:13;;;;;;;6.13;4.43;;;19.20;99.90;;;;;;5070449;28;20179;-81
2021/10/19 10:05:40;;;;;;;5.25;4.75;;;19.00;99.90;;;;;;5069450;28;20162;-82
2021/10/19 10:08:10;;;;;;;5.72;5.03;;;19.00;99.90;;;;;;5070829;28;20277;-78
2021/10/19 10:10:36;;;;;;;9.43;4.38;;;18.90;99.90;;;;;;5072080;28;20178;-79
2021/10/19 10:13:14;;;;;;;9.60;5.38;;;19.00;99.90;;;;;;5071520;28;20202;-78
2021/10/19 10:15:40;;;;;;;7.22;5.82;;;19.10;99.90;;;;;;5074978;28;20618;-79
2021/10/19 10:18:08;;;;;;;5.50;4.93;;;19.20;99.90;;;;;;5075716;28;20216;-79
2021/10/19 10:20:43;;;;;;;7.68;5.55;;;19.30;99.90;;;;;;5076044;28;20219;-78
2021/10/19 10:23:23;;;;;;;5.43;4.93;;;19.30;99.90;;;;;;5075632;28;20174;-77
2021/10/19 10:25:51;;;;;;;5.43;4.93;;;19.20;99.90;;;;;;5076373;28;20174;-77
2021/10/19 10:28:37;;;;;;;6.70;5.40;;;19.30;99.90;;;;;;5075497;28;20194;-78
2021/10/19 10:31:07;;;;;;;6.88;6.18;;;19.30;99.90;;;;;;5075660;28;20261;-78
2021/10/19 10:33:37;;;;;;;4.82;4.43;;;19.20;99.90;;;;;;5075379;28;20216;-77
2021/10/19 10:36:21;;;;;;;5.15;4.75;;;19.30;99.90;;;;;;5075687;28;20254;-77
2021/10/19 10:38:55;;;;;;;6.50;4.50;;;19.30;99.90;;;;;;5075685;28;20257;-78
2021/10/19 10:41:21;;;;;;;5.22;4.72;;;19.40;99.90;;;;;;5075277;28;20165;-79
2021/10/19 10:43:57;;;;;;;6.32;4.45;;;19.30;99.90;;;;;;5076460;28;20697;-77
2021/10/19 10:46:23;;;;;;;5.43;4.55;;;19.40;99.90;;;;;;5091312;28;20196;-77
2021/10/19 10:48:49;;;;;;;8.38;5.30;;;19.40;99.90;;;;;;5095396;28;20213;-77
2021/10/19 10:51:32;;;;;;;6.13;4.80;;;19.60;99.90;;;;;;5064070;28;20183;-77
2021/10/19 10:53:58;;;;;;;5.15;4.72;;;19.70;99.90;;;;;;5066226;28;20206;-77
2021/10/19 10:56:25;;;;;;;4.78;4.38;;;19.90;99.90;;;;;;5075833;28;20167;-78
2021/10/19 10:58:51;;;;;;;6.22;4.05;;;19.90;99.90;;;;;;5075063;28;20201;-76
2021/10/19 11:01:19;;;;;;;6.28;4.25;;;19.70;99.90;;;;;;5087144;28;20189;-77
2021/10/19 11:03:50;;;;;;;9.63;4.13;;;19.60;99.90;;;;;;5097163;28;20186;-76
2021/10/19 11:06:22;;;;;;;4.68;4.30;;;19.50;99.90;;;;;;5096209;28;20231;-77
2021/10/19 11:08:59;;;;;;;6.10;4.88;;;19.60;99.90;;;;;;5074206;28;20239;-76
2021/10/19 11:11:26;;;;;;;5.93;3.88;;;19.80;99.90;;;;;;5096573;28;20161;-76
2021/10/19 11:14:00;;;;;;;8.90;4.53;;;19.80;99.90;;;;;;5075842;28;20237;-78
2021/10/19 11:16:34;;;;;;;6.18;4.68;;;19.80;99.90;;;;;;5075743;28;20211;-78
2021/10/19 11:19:01;;;;;;;4.97;4.47;;;19.80;99.90;;;;;;5063249;28;20214;-78
2021/10/19 11:21:27;;;;;;;5.43;4.28;;;19.90;99.90;;;;;;5096041;28;20165;-82
2021/10/19 11:23:55;;;;;;;4.75;4.32;;;19.90;99.90;;;;;;5093970;28;20200;-79
2021/10/19 11:26:21;;;;;;;8.40;4.93;;;19.80;99.90;;;;;;5094143;28;20686;-83
2021/10/19 11:28:46;;;;;;;5.20;4.40;;;19.90;99.90;;;;;;5093565;28;20556;-79
2021/10/19 11:31:13;;;;;;;6.50;4.75;;;19.90;99.90;;;;;;5095180;28;20166;-79
2021/10/19 11:33:45;;;;;;;4.95;4.55;;;19.80;99.90;;;;;;5095018;28;20251;-79
2021/10/19 11:36:12;;;;;;;8.60;5.00;;;19.80;99.90;;;;;;5094667;28;20245;-81
2021/10/19 11:38:43;;;;;;;10.68;4.93;;;19.80;99.90;;;;;;5093882;28;20631;-80
2021/10/19 11:41:11;;;;;;;4.75;4.35;;;19.90;99.90;;;;;;5094792;28;20166;-80
2021/10/19 11:43:44;;;;;;;4.93;4.53;;;19.90;99.90;;;;;;5094471;28;20181;-81
2021/10/19 11:46:12;;;;;;;4.78;4.35;;;19.90;99.90;;;;;;5094679;28;20173;-81
2021/10/19 11:48:39;;;;;;;13.30;4.82;;;20.00;99.90;;;;;;5094408;28;20185;-78
2021/10/19 11:51:11;;;;;;;4.38;4.07;;;20.00;99.90;;;;;;5094798;28;20170;-81
2021/10/19 11:53:38;;;;;;;6.65;4.57;;;20.00;99.90;;;;;;5093229;28;20214;-79
2021/10/19 11:56:05;;;;;;;8.98;4.55;;;20.20;99.90;;;;;;5094330;28;20166;-79
2021/10/19 11:58:32;;;;;;;4.68;4.28;;;20.20;99.90;;;;;;5094316;28;20182;-80
2021/10/19 12:00:58;;;;;;;5.30;4.88;;;20.40;99.90;;;;;;5094460;28;20161;-82
2021/10/19 12:03:33;;;;;;;5.28;4.18;;;20.30;99.90;;;;;;5094128;28;20162;-78
2021/10/19 12:05:59;;;;;;;7.68;4.43;;;20.30;99.90;;;;;;5094186;28;20284;-77
2021/10/19 12:08:32;;;;;;;6.05;4.70;;;20.30;99.90;;;;;;5094153;28;20235;-79
2021/10/19 12:11:11;;;;;;;7.25;5.07;;;20.20;99.90;;;;;;5093956;28;20161;-79
2021/10/19 12:13:42;;;;;;;9.80;4.93;;;20.20;99.90;;;;;;5093985;28;20205;-79
2021/10/19 12:16:09;;;;;;;5.63;5.13;;;20.10;99.90;;;;;;5094202;28;20158;-79
2021/10/19 12:18:40;;;;;;;7.22;4.65;;;20.10;99.90;;;;;;5094003;28;20189;-78
2021/10/19 12:21:06;;;;;;;5.05;4.65;;;20.10;99.90;;;;;;5094156;28;20190;-79
2021/10/19 12:23:32;;;;;;;8.10;5.60;;;20.30;99.90;;;;;;5093813;28;20193;-78
2021/10/19 12:25:57;;;;;;;9.10;6.43;;;20.30;99.90;;;;;;5093736;28;20212;-78
2021/10/19 12:28:26;;;;;;;5.72;5.22;;;20.20;99.90;;;;;;5093647;28;20193;-78
2021/10/19 12:30:54;;;;;;;11.52;5.95;;;20.10;99.90;;;;;;5093281;28;20166;-77
2021/10/19 12:33:23;;;;;;;7.63;5.40;;;20.00;99.90;;;;;;5093528;28;20217;-77
2021/10/19 12:36:11;;;;;;;5.47;4.97;;;19.80;99.90;;;;;;5093525;28;20252;-77
2021/10/19 12:38:44;;;;;;;6.63;5.93;;;19.90;99.90;;;;;;5091209;28;20250;-78
2021/10/19 12:41:16;;;;;;;12.18;6.65;;;19.90;99.90;;;;;;5093511;28;20169;-78
2021/10/19 12:43:49;;;;;;;6.60;5.60;;;19.60;99.90;;;;;;5093503;28;20216;-78